createdAt,value
2019-01-10T00:02:39.008Z,2.46
2019-01-10T00:06:43.289Z,2.48
2019-01-10T00:10:47.704Z,2.49
2019-01-10T00:14:53.174Z,2.49
2019-01-10T00:18:57.479Z,2.49
2019-01-10T00:23:02.223Z,2.51
2019-01-10T00:27:06.507Z,2.51
2019-01-10T00:31:10.953Z,2.51
2019-01-10T00:35:15.259Z,2.52
2019-01-10T00:39:19.549Z,2.53
2019-01-10T00:43:23.830Z,2.51
2019-01-10T00:47:28.090Z,2.47
2019-01-10T00:51:32.373Z,2.45
2019-01-10T00:55:36.670Z,2.47
2019-01-10T00:59:40.946Z,2.43
2019-01-10T01:03:45.230Z,2.41
2019-01-10T01:07:51.325Z,2.39
2019-01-10T01:11:55.642Z,2.41
2019-01-10T01:16:01.623Z,2.44
2019-01-10T01:20:06.927Z,2.44
2019-01-10T01:24:14.146Z,2.44
2019-01-10T01:28:18.654Z,2.47
2019-01-10T01:32:22.957Z,2.45
2019-01-10T01:36:27.340Z,2.43
2019-01-10T01:40:31.836Z,2.43
2019-01-10T01:44:36.303Z,2.42
2019-01-10T01:48:40.963Z,2.39
2019-01-10T01:52:45.775Z,2.40
2019-01-10T01:56:50.264Z,2.39
2019-01-10T02:00:54.623Z,2.36
2019-01-10T02:04:59.162Z,2.38
2019-01-10T02:09:04.397Z,2.40
2019-01-10T02:13:16.543Z,2.36
2019-01-10T02:17:15.920Z,2.37
2019-01-10T02:21:20.369Z,2.37
2019-01-10T02:25:25.016Z,2.33
2019-01-10T02:29:29.334Z,2.30
2019-01-10T02:33:33.639Z,2.30
2019-01-10T02:37:38.206Z,2.31
2019-01-10T02:41:42.539Z,2.31
2019-01-10T02:45:46.911Z,2.29
2019-01-10T02:49:51.276Z,2.29
2019-01-10T02:53:55.558Z,2.31
2019-01-10T02:57:59.960Z,2.30
2019-01-10T03:02:04.734Z,2.27
2019-01-10T03:06:09.124Z,2.26
2019-01-10T03:10:14.672Z,2.23
2019-01-10T03:14:18.939Z,2.21
2019-01-10T03:18:23.269Z,2.22
2019-01-10T03:22:27.637Z,2.20
2019-01-10T03:26:32.088Z,2.17
2019-01-10T03:30:36.353Z,2.16
2019-01-10T03:34:40.647Z,2.16
2019-01-10T03:38:44.967Z,2.13
2019-01-10T03:42:49.329Z,2.10
2019-01-10T03:46:53.655Z,2.07
2019-01-10T03:50:58.008Z,2.07
2019-01-10T03:55:02.323Z,2.05
2019-01-10T03:59:06.661Z,2.03
2019-01-10T04:03:10.992Z,2.00
2019-01-10T04:07:15.328Z,1.97
2019-01-10T04:11:19.656Z,1.92
2019-01-10T04:15:24.096Z,1.90
2019-01-10T04:19:28.630Z,1.88
2019-01-10T04:23:32.963Z,1.85
2019-01-10T04:27:37.359Z,1.85
2019-01-10T04:31:41.889Z,1.84
2019-01-10T04:35:46.201Z,1.83
2019-01-10T04:39:50.835Z,1.84
2019-01-10T04:43:55.225Z,1.82
2019-01-10T04:47:59.607Z,1.84
2019-01-10T04:52:03.886Z,1.83
2019-01-10T04:56:08.253Z,1.84
2019-01-10T05:00:18.661Z,1.86
2019-01-10T05:04:23.887Z,1.87
2019-01-10T05:08:28.252Z,1.91
2019-01-10T05:12:32.530Z,1.91
2019-01-10T05:16:36.948Z,1.93
2019-01-10T05:20:41.297Z,1.95
2019-01-10T05:24:46.764Z,1.97
2019-01-10T05:28:51.185Z,1.98
2019-01-10T05:32:55.789Z,1.99
2019-01-10T05:37:00.183Z,2.00
2019-01-10T05:41:04.507Z,2.00
2019-01-10T05:45:10.721Z,2.00
2019-01-10T05:49:15.524Z,2.02
2019-01-10T05:53:20.044Z,2.01
2019-01-10T05:57:24.563Z,1.97
2019-01-10T06:01:29.082Z,1.98
2019-01-10T06:05:33.453Z,1.98
2019-01-10T06:09:37.847Z,1.94
2019-01-10T06:13:42.193Z,1.93
2019-01-10T06:17:46.797Z,1.92
2019-01-10T06:21:51.177Z,1.90
2019-01-10T06:25:55.697Z,1.90
2019-01-10T06:30:01.199Z,1.91
2019-01-10T06:34:06.549Z,1.86
2019-01-10T06:38:11.042Z,1.83
2019-01-10T06:42:15.459Z,1.86
2019-01-10T06:46:19.777Z,1.84
2019-01-10T06:50:24.242Z,1.83
2019-01-10T06:54:28.650Z,1.83
2019-01-10T06:58:33.002Z,1.82
2019-01-10T07:02:37.408Z,1.86
2019-01-10T07:06:42.819Z,1.84
2019-01-10T07:10:47.971Z,1.82
2019-01-10T07:14:53.612Z,1.81
2019-01-10T07:18:59.102Z,1.82
2019-01-10T07:23:04.705Z,1.81
2019-01-10T07:27:09.199Z,1.80
2019-01-10T07:31:29.569Z,1.81
2019-01-10T07:35:34.143Z,1.84
2019-01-10T07:39:39.739Z,1.85
2019-01-10T07:43:43.940Z,1.89
2019-01-10T07:47:48.852Z,1.87
2019-01-10T07:51:53.190Z,1.94
2019-01-10T07:55:57.432Z,1.99
2019-01-10T08:00:01.714Z,2.01
2019-01-10T08:04:05.962Z,2.05
2019-01-10T08:08:10.290Z,2.03
2019-01-10T08:12:15.089Z,2.04
2019-01-10T08:16:19.298Z,2.02
2019-01-10T08:20:23.578Z,2.04
2019-01-10T08:24:27.943Z,2.07
2019-01-10T08:28:32.229Z,2.12
2019-01-10T08:32:42.681Z,2.10
2019-01-10T08:36:47.332Z,2.12
2019-01-10T08:40:53.438Z,2.12
2019-01-10T08:44:59.726Z,2.16
2019-01-10T08:49:07.925Z,2.15
2019-01-10T08:53:12.592Z,2.17
2019-01-10T08:57:17.324Z,2.19
2019-01-10T09:01:21.553Z,2.19
2019-01-10T09:05:25.921Z,2.20
2019-01-10T09:09:30.232Z,2.22
2019-01-10T09:13:34.575Z,2.21
2019-01-10T09:17:38.956Z,2.25
2019-01-10T09:21:43.450Z,2.26
2019-01-10T09:25:47.945Z,2.30
2019-01-10T09:29:52.195Z,2.30
2019-01-10T09:33:56.845Z,2.29
2019-01-10T09:38:01.107Z,2.31
2019-01-10T09:42:07.429Z,2.34
2019-01-10T09:46:12.070Z,2.37
2019-01-10T09:50:18.854Z,2.42
2019-01-10T09:54:23.219Z,2.49
2019-01-10T09:58:28.742Z,2.52
2019-01-10T10:02:33.083Z,2.52
2019-01-10T10:06:37.967Z,2.53
2019-01-10T10:10:42.309Z,2.51
2019-01-10T10:14:46.623Z,2.54
2019-01-10T10:18:58.848Z,2.59
2019-01-10T10:23:03.187Z,2.65
2019-01-10T10:27:07.543Z,2.70
2019-01-10T10:31:13.665Z,2.70
2019-01-10T10:35:18.385Z,2.74
2019-01-10T10:39:24.343Z,2.78
2019-01-10T10:43:28.691Z,2.80
2019-01-10T10:47:34.986Z,2.79
2019-01-10T10:51:39.866Z,2.83
2019-01-10T10:55:44.160Z,2.86
2019-01-10T10:59:48.464Z,2.91
2019-01-10T11:03:52.778Z,2.95
2019-01-10T11:07:57.104Z,2.93
2019-01-10T11:12:01.518Z,2.96
2019-01-10T11:16:10.692Z,2.93
2019-01-10T11:20:15.468Z,2.92
2019-01-10T11:24:19.757Z,2.88
2019-01-10T11:28:24.203Z,2.87
2019-01-10T11:32:28.841Z,2.88
2019-01-10T11:36:34.022Z,2.87
2019-01-10T11:40:38.445Z,2.88
2019-01-10T11:44:45.711Z,2.82
2019-01-10T11:48:50.150Z,2.81
2019-01-10T11:52:54.761Z,2.82
2019-01-10T11:56:59.064Z,2.85
2019-01-10T12:01:06.695Z,2.75
2019-01-10T12:05:30.421Z,2.74
2019-01-10T12:09:36.915Z,2.76
2019-01-10T12:13:41.264Z,2.76
2019-01-10T12:17:45.769Z,2.72
2019-01-10T12:21:52.353Z,2.76
2019-01-10T12:26:15.752Z,2.72
2019-01-10T12:30:22.347Z,2.76
2019-01-10T12:34:26.720Z,2.84
2019-01-10T12:38:31.003Z,2.85
2019-01-10T12:42:35.326Z,2.83
2019-01-10T12:46:39.733Z,2.84
2019-01-10T12:50:44.026Z,2.81
2019-01-10T12:54:48.280Z,2.80
2019-01-10T12:58:52.499Z,2.80
2019-01-10T13:02:56.891Z,2.76
2019-01-10T13:07:01.109Z,2.75
2019-01-10T13:11:05.278Z,2.71
2019-01-10T13:15:11.754Z,2.69
2019-01-10T13:19:15.949Z,2.69
2019-01-10T13:23:20.126Z,2.71
2019-01-10T13:27:24.392Z,2.68
2019-01-10T13:31:28.522Z,2.71
2019-01-10T13:35:32.699Z,2.73
2019-01-10T13:39:36.931Z,2.69
2019-01-10T13:43:41.088Z,2.67
2019-01-10T13:47:47.972Z,2.68
2019-01-10T13:51:52.051Z,2.62
2019-01-10T13:55:56.237Z,2.58
2019-01-10T14:00:00.434Z,2.59
2019-01-10T14:04:04.623Z,2.57
2019-01-10T14:08:08.806Z,2.57
2019-01-10T14:12:12.949Z,2.59
2019-01-10T14:16:17.132Z,2.61
2019-01-10T14:20:21.319Z,2.61
2019-01-10T14:24:25.487Z,2.59
2019-01-10T14:28:29.964Z,2.56
2019-01-10T14:32:34.082Z,2.55
2019-01-10T14:36:38.589Z,2.56
2019-01-10T14:40:42.767Z,2.51
2019-01-10T14:44:46.961Z,2.45
2019-01-10T14:48:51.177Z,2.41
2019-01-10T14:52:55.309Z,2.37
2019-01-10T14:56:59.502Z,2.36
2019-01-10T15:01:03.665Z,2.36
2019-01-10T15:05:08.075Z,2.34
2019-01-10T15:09:12.271Z,2.32
2019-01-10T15:13:16.541Z,2.29
2019-01-10T15:17:20.698Z,2.26
2019-01-10T15:21:24.855Z,2.25
2019-01-10T15:25:29.067Z,2.28
2019-01-10T15:29:33.270Z,2.25
2019-01-10T15:33:37.406Z,2.28
2019-01-10T15:37:45.059Z,2.29
2019-01-10T15:41:49.303Z,2.33
2019-01-10T15:45:53.483Z,2.36
2019-01-10T15:49:57.717Z,2.39
2019-01-10T15:54:03.936Z,2.39
2019-01-10T15:58:08.157Z,2.37
2019-01-10T16:02:12.906Z,2.38
2019-01-10T16:06:17.076Z,2.38
2019-01-10T16:10:21.521Z,2.47
2019-01-10T16:14:25.733Z,2.46
2019-01-10T16:18:29.905Z,2.43
2019-01-10T16:22:34.103Z,2.40
2019-01-10T16:26:38.617Z,2.41
2019-01-10T16:30:42.764Z,2.40
2019-01-10T16:34:46.954Z,2.44
2019-01-10T16:38:51.161Z,2.45
2019-01-10T16:42:55.340Z,2.47
2019-01-10T16:46:59.655Z,2.49
2019-01-10T16:51:03.837Z,2.51
2019-01-10T16:55:08.804Z,2.62
2019-01-10T16:59:13.019Z,2.56
2019-01-10T17:03:17.156Z,2.54
2019-01-10T17:07:21.344Z,2.54
2019-01-10T17:11:25.525Z,2.52
2019-01-10T17:15:29.981Z,2.50
2019-01-10T17:19:34.126Z,2.50
2019-01-10T17:23:38.467Z,2.52
2019-01-10T17:27:42.696Z,2.50
2019-01-10T17:31:46.918Z,2.49
2019-01-10T17:35:51.103Z,2.51
2019-01-10T17:39:55.344Z,2.47
2019-01-10T17:43:59.819Z,2.44
2019-01-10T17:48:04.276Z,2.40
2019-01-10T17:52:08.817Z,2.39
2019-01-10T17:56:12.965Z,2.37
2019-01-10T18:00:19.708Z,2.37
2019-01-10T18:04:23.851Z,2.35
2019-01-10T18:08:28.030Z,2.35
2019-01-10T18:12:32.194Z,2.33
2019-01-10T18:16:36.361Z,2.42
2019-01-10T18:20:41.528Z,2.39
2019-01-10T18:24:45.674Z,2.41
2019-01-10T18:28:49.930Z,2.33
2019-01-10T18:32:54.306Z,2.31
2019-01-10T18:36:58.483Z,2.30
2019-01-10T18:41:02.627Z,2.31
2019-01-10T18:45:10.239Z,2.22
2019-01-10T18:49:14.453Z,2.20
2019-01-10T18:53:18.623Z,2.21
2019-01-10T18:57:23.113Z,2.20
2019-01-10T19:01:27.295Z,2.16
2019-01-10T19:05:31.948Z,2.16
2019-01-10T19:09:36.168Z,2.12
2019-01-10T19:13:40.356Z,2.12
2019-01-10T19:17:44.478Z,2.10
2019-01-10T19:21:48.709Z,2.07
2019-01-10T19:25:52.845Z,2.05
2019-01-10T19:29:57.022Z,2.04
2019-01-10T19:34:01.226Z,2.06
2019-01-10T19:38:05.690Z,2.08
2019-01-10T19:42:12.754Z,2.07
2019-01-10T19:46:16.075Z,2.05
2019-01-10T19:50:22.399Z,2.03
2019-01-10T19:54:26.590Z,2.05
2019-01-10T19:58:30.763Z,2.07
2019-01-10T20:02:35.002Z,2.05
2019-01-10T20:06:39.224Z,2.03
2019-01-10T20:10:43.393Z,2.01
2019-01-10T20:14:47.527Z,1.99
2019-01-10T20:18:51.752Z,1.99
2019-01-10T20:22:57.785Z,2.00
2019-01-10T20:27:02.020Z,1.96
2019-01-10T20:31:06.192Z,1.92
2019-01-10T20:35:10.784Z,1.88
2019-01-10T20:39:15.023Z,1.86
2019-01-10T20:43:19.219Z,1.83
2019-01-10T20:47:23.483Z,1.81
2019-01-10T20:51:27.736Z,1.76
2019-01-10T20:55:31.949Z,1.73
2019-01-10T20:59:36.107Z,1.67
2019-01-10T21:03:40.233Z,1.63
2019-01-10T21:07:47.028Z,1.57
2019-01-10T21:11:51.167Z,1.54
2019-01-10T21:15:58.497Z,1.51
2019-01-10T21:20:02.779Z,1.50
2019-01-10T21:24:06.929Z,1.54
2019-01-10T21:28:11.109Z,1.54
2019-01-10T21:32:15.245Z,1.52
2019-01-10T21:36:19.970Z,1.52
2019-01-10T21:40:24.750Z,1.54
2019-01-10T21:44:28.895Z,1.59
2019-01-10T21:48:35.163Z,1.57
2019-01-10T21:52:39.003Z,1.54
2019-01-10T21:56:44.537Z,1.58
2019-01-10T22:00:48.893Z,1.57
2019-01-10T22:04:53.230Z,1.52
2019-01-10T22:08:57.515Z,1.48
2019-01-10T22:13:01.819Z,1.43
2019-01-10T22:17:06.021Z,1.39
2019-01-10T22:21:10.189Z,1.37
2019-01-10T22:25:14.417Z,1.30
2019-01-10T22:29:18.863Z,1.27
2019-01-10T22:33:23.023Z,1.27
2019-01-10T22:37:29.168Z,1.25
2019-01-10T22:41:33.080Z,1.26
2019-01-10T22:45:37.261Z,1.26
2019-01-10T22:49:41.451Z,1.26
2019-01-10T22:53:45.613Z,1.27
2019-01-10T22:57:50.122Z,1.26
2019-01-10T23:01:57.232Z,1.24
2019-01-10T23:06:01.450Z,1.24
2019-01-10T23:10:09.007Z,1.27
2019-01-10T23:14:13.541Z,1.25
2019-01-10T23:18:17.724Z,1.29
2019-01-10T23:22:21.901Z,1.28
2019-01-10T23:26:26.075Z,1.29
2019-01-10T23:30:56.532Z,1.28
2019-01-10T23:35:00.696Z,1.28
2019-01-10T23:39:19.280Z,1.29
2019-01-10T23:43:23.417Z,1.29
2019-01-10T23:47:27.544Z,1.27
2019-01-10T23:51:31.753Z,1.25
2019-01-10T23:55:36.220Z,1.25
2019-01-10T23:59:40.394Z,1.25
